This is the latest recevied weather packets stored in our database for station/object XE1GMR. If no packets are shown the sender has not sent any weather packets the latest 10 day(s).
| Time | Temp. | Humidity | Pressure | Rain* | Wind** | Luminosity | Snow |
|---|---|---|---|---|---|---|---|
| 1778280908 | 30° C | 29% | 1117.3 hPa | 0 mm | - | 242 W/m² | - |
| 1778280604 | 29.44° C | 30% | 1117.2 hPa | 0 mm | - | 198 W/m² | - |
| 1778280302 | 29.44° C | 31% | 1117.2 hPa | 0 mm | - | 226 W/m² | - |
| 1778279999 | 28.89° C | 31% | 1117.2 hPa | 0 mm | - | 288 W/m² | - |
| 1778279697 | 29.44° C | 31% | 1117.2 hPa | 0 mm | - | 160 W/m² | - |
| 1778279394 | 30° C | 30% | 1117 hPa | 0 mm | - | 212 W/m² | - |
| 1778279091 | 30° C | 29% | 1116.9 hPa | 0 mm | - | 359 W/m² | - |
| 1778278788 | 30° C | 32% | 1116.9 hPa | 0 mm | - | 416 W/m² | - |
| 1778278484 | 30° C | 30% | 1116.7 hPa | 0 mm | - | 415 W/m² | - |
| 1778278180 | 30° C | 30% | 1116.8 hPa | 0 mm | - | 349 W/m² | - |
| 1778277877 | 30° C | 30% | 1116.6 hPa | 0 mm | - | 435 W/m² | - |
| 1778277573 | 30° C | 31% | 1116.8 hPa | 0 mm | - | 460 W/m² | - |
| 1778277270 | 30° C | 33% | 1116.8 hPa | 0 mm | - | 431 W/m² | - |
| 1778276966 | 30° C | 33% | 1116.9 hPa | 0 mm | - | 409 W/m² | - |
| 1778276665 | 28.89° C | 36% | 1117.2 hPa | 0 mm | - | 484 W/m² | - |
| 1778276360 | 29.44° C | 36% | 1117.3 hPa | 0 mm | - | 492 W/m² | - |
| 1778276058 | 29.44° C | 36% | 1117.3 hPa | 0 mm | - | 494 W/m² | - |
| 1778275753 | 30° C | 35% | 1117.3 hPa | 0 mm | - | 519 W/m² | - |
| 1778275450 | 29.44° C | 35% | 1117.2 hPa | 0 mm | - | 517 W/m² | - |
| 1778275146 | 29.44° C | 34% | 1117.2 hPa | 0 mm | - | 533 W/m² | - |
| 1778274841 | 30° C | 35% | 1117.3 hPa | 0 mm | - | 542 W/m² | - |
| 1778274540 | 29.44° C | 35% | 1117.3 hPa | 0 mm | - | 569 W/m² | - |
| 1778274235 | 30° C | 34% | 1117 hPa | 0 mm | - | 607 W/m² | - |
| 1778273932 | 30° C | 35% | 1117.5 hPa | 0 mm | - | 606 W/m² | - |
| 1778273629 | 29.44° C | 36% | 1117.7 hPa | 0 mm | - | 633 W/m² | - |
* Rain latest hour (hover to see other rain measurements)
** Current wind speed in m/s (hover to see current wind gust speed)